createdAt,value
2018-01-31T01:52:41.008Z,89.98
2018-01-31T01:53:40.512Z,90.38
2018-01-31T01:54:40.716Z,90.36
2018-01-31T01:55:39.608Z,90.42
2018-01-31T01:56:40.891Z,90.44
2018-01-31T01:57:40.085Z,90.57
2018-01-31T01:58:40.081Z,90.51
2018-01-31T01:59:40.479Z,90.35
2018-01-31T02:00:41.847Z,90.53
2018-01-31T02:01:39.791Z,90.6
2018-01-31T02:02:40.267Z,90.95
2018-01-31T02:03:40.702Z,90.5
2018-01-31T02:04:39.715Z,91.23
2018-01-31T02:05:39.670Z,90.96
2018-01-31T02:06:40.253Z,91.23
2018-01-31T02:07:40.342Z,91
2018-01-31T02:08:41.462Z,90.66
2018-01-31T02:09:42.527Z,91.05
2018-01-31T02:10:39.927Z,91
2018-01-31T02:11:39.718Z,90.97
2018-01-31T02:12:39.977Z,91.09
2018-01-31T02:13:39.698Z,91.25
2018-01-31T02:14:40.851Z,91.36
2018-01-31T02:15:39.686Z,91.27
2018-01-31T02:16:39.491Z,90.84
2018-01-31T02:17:40.517Z,91
2018-01-31T02:18:41.710Z,91.14
2018-01-31T02:19:41.460Z,91.47
2018-01-31T02:20:39.678Z,91.5
2018-01-31T02:21:40.505Z,91.18
2018-01-31T02:22:40.387Z,91.34
2018-01-31T02:23:41.108Z,91.47
2018-01-31T02:24:39.434Z,91.38
2018-01-31T02:25:40.283Z,91.23
2018-01-31T02:26:40.972Z,91.52
2018-01-31T02:27:41.019Z,91.14
2018-01-31T02:28:40.187Z,91.68
2018-01-31T02:29:40.556Z,91.3
2018-01-31T02:30:40.070Z,91.43
2018-01-31T02:31:40.444Z,91.54
2018-01-31T02:32:39.585Z,91.4
2018-01-31T02:33:39.853Z,91.16
2018-01-31T02:34:40.126Z,91.43
2018-01-31T02:35:39.821Z,91.21
2018-01-31T02:36:40.246Z,91.15
2018-01-31T02:37:39.932Z,91.3
2018-01-31T02:38:39.586Z,91.18
2018-01-31T02:39:40.233Z,91.39
2018-01-31T02:40:39.901Z,91.28
2018-01-31T02:41:41.204Z,91.09
2018-01-31T02:42:40.362Z,90.78
2018-01-31T02:43:40.376Z,91.15
2018-01-31T02:44:39.868Z,90.67
2018-01-31T02:45:40.379Z,90.99
2018-01-31T02:46:39.795Z,91.04
2018-01-31T02:47:39.603Z,90.82
2018-01-31T02:48:39.529Z,90.81
2018-01-31T02:49:39.701Z,91.15
2018-01-31T02:50:39.467Z,90.71
2018-01-31T02:51:40.180Z,90.87
2018-01-31T02:52:39.896Z,90.8
2018-01-31T02:53:41.876Z,90.85
2018-01-31T02:54:41.097Z,91.1
2018-01-31T02:55:39.646Z,90.88
2018-01-31T02:56:39.760Z,90.85
2018-01-31T02:57:39.883Z,90.81
2018-01-31T02:58:39.545Z,90.89
2018-01-31T02:59:40.896Z,91.1
2018-01-31T03:00:40.173Z,91.17
2018-01-31T03:01:40.436Z,91.4
2018-01-31T03:02:40.935Z,91.51
2018-01-31T03:03:42.499Z,91.59
2018-01-31T03:04:40.610Z,91.48
2018-01-31T03:05:40.298Z,91.36
2018-01-31T03:06:40.055Z,91.36
2018-01-31T03:07:41.167Z,91.52
2018-01-31T03:08:39.787Z,91.57
2018-01-31T03:09:39.841Z,91.81
2018-01-31T03:10:41.095Z,91.8
2018-01-31T03:11:39.677Z,91.67
2018-01-31T03:12:40.580Z,91.8
2018-01-31T03:13:41.049Z,91.94
2018-01-31T03:14:41.037Z,91.88
2018-01-31T03:15:41.030Z,91.93
2018-01-31T03:16:42.274Z,91.75
2018-01-31T03:17:39.882Z,91.52
2018-01-31T03:18:39.918Z,91.77
2018-01-31T03:19:40.929Z,91.88
2018-01-31T03:20:39.820Z,91.62
2018-01-31T03:21:40.326Z,91.8
2018-01-31T03:22:40.320Z,91.88
2018-01-31T03:23:40.298Z,91.6
2018-01-31T03:24:40.686Z,91.52
2018-01-31T03:25:39.965Z,91.85
2018-01-31T03:26:40.199Z,91.76
2018-01-31T03:27:39.902Z,91.94
2018-01-31T03:28:39.913Z,91.8
2018-01-31T03:29:39.714Z,91.76
2018-01-31T03:30:39.963Z,91.45
2018-01-31T03:31:43.345Z,91.44
2018-01-31T03:32:40.281Z,91.44
2018-01-31T03:33:39.631Z,91.33
2018-01-31T03:34:40.512Z,91.51
2018-01-31T03:35:40.302Z,91.46
2018-01-31T03:36:41.580Z,91.33
2018-01-31T03:37:40.348Z,91.33
2018-01-31T03:38:45.475Z,91.42
2018-01-31T03:39:39.615Z,91.26
2018-01-31T03:40:39.875Z,91.2
2018-01-31T03:41:40.337Z,91.04
2018-01-31T03:42:39.795Z,91.13
2018-01-31T03:43:39.764Z,91.17
2018-01-31T03:44:40.392Z,91.24
2018-01-31T03:45:40.522Z,91.09
2018-01-31T03:46:40.703Z,91.22
2018-01-31T03:47:40.011Z,91.2
2018-01-31T03:48:39.995Z,91.07
2018-01-31T03:49:39.679Z,91.13
2018-01-31T03:50:39.550Z,91.14
2018-01-31T03:51:39.912Z,91.29
2018-01-31T03:52:39.999Z,91.33
2018-01-31T03:53:39.852Z,91.23
2018-01-31T03:54:40.256Z,91.09
2018-01-31T03:55:39.839Z,91.18
2018-01-31T03:56:39.996Z,90.98
2018-01-31T03:57:40.741Z,91.09
2018-01-31T03:58:39.903Z,91.06
2018-01-31T03:59:39.354Z,90.82
2018-01-31T04:00:39.862Z,90.84
2018-01-31T04:01:40.188Z,90.84
2018-01-31T04:02:40.329Z,90.92
2018-01-31T04:03:42.062Z,90.78
2018-01-31T04:04:40.378Z,91.11
2018-01-31T04:05:41.194Z,90.83
2018-01-31T04:06:40.159Z,90.85
2018-01-31T04:07:39.817Z,90.88
2018-01-31T04:08:41.201Z,91.13
2018-01-31T04:09:41.093Z,90.93
2018-01-31T04:10:40.613Z,90.79
2018-01-31T04:11:41.120Z,91
2018-01-31T04:12:40.740Z,91.16
2018-01-31T04:13:41.010Z,90.86
2018-01-31T04:14:39.807Z,91.06
2018-01-31T04:15:39.553Z,90.81
2018-01-31T04:16:39.731Z,90.72
2018-01-31T04:17:40.604Z,90.78
2018-01-31T04:18:40.088Z,91
2018-01-31T04:19:39.574Z,90.63
2018-01-31T04:20:39.961Z,90.65
2018-01-31T04:21:39.672Z,90.52
2018-01-31T04:22:40.540Z,90.38
2018-01-31T04:23:40.237Z,90.63
2018-01-31T04:24:39.766Z,90.42
2018-01-31T04:25:41.173Z,90.62
2018-01-31T04:26:41.315Z,90.5
2018-01-31T04:27:39.865Z,90.41
2018-01-31T04:28:40.088Z,90.48
2018-01-31T04:29:41.506Z,90.58
2018-01-31T04:30:41.343Z,90.49
2018-01-31T04:31:40.321Z,90.3
2018-01-31T04:32:41.799Z,90.4
2018-01-31T04:33:40.793Z,90.25
2018-01-31T04:34:40.400Z,90.34
2018-01-31T04:35:39.578Z,90.26
2018-01-31T04:36:40.690Z,90.2
2018-01-31T04:37:40.139Z,90.24
2018-01-31T04:38:39.945Z,90.17
2018-01-31T04:39:39.482Z,90.33
2018-01-31T04:40:39.852Z,90.21
2018-01-31T04:41:39.679Z,90.26
2018-01-31T04:42:40.036Z,90.19
2018-01-31T04:43:40.609Z,90.35
2018-01-31T04:44:41.200Z,90.25
2018-01-31T04:45:41.151Z,90.27
2018-01-31T04:46:39.727Z,90.03
2018-01-31T04:47:41.193Z,89.78
2018-01-31T04:48:39.828Z,89.65
2018-01-31T04:49:39.859Z,89.7
2018-01-31T04:50:39.854Z,89.55
2018-01-31T04:51:39.441Z,89.31
2018-01-31T04:52:39.479Z,89.27
2018-01-31T04:53:39.396Z,89.27
2018-01-31T04:54:39.608Z,89.25
2018-01-31T04:55:39.618Z,89.23
2018-01-31T04:56:39.766Z,89.08
2018-01-31T04:57:39.641Z,89.11
2018-01-31T04:58:39.566Z,88.96
2018-01-31T04:59:39.677Z,88.92
2018-01-31T05:00:39.579Z,88.75
2018-01-31T05:01:39.696Z,88.61
2018-01-31T05:02:39.729Z,88.68
2018-01-31T05:03:39.489Z,88.76
2018-01-31T05:04:39.633Z,88.48
2018-01-31T05:05:39.740Z,88.53
2018-01-31T05:06:39.668Z,88.53
2018-01-31T05:07:39.518Z,88.39
2018-01-31T05:08:39.559Z,88.42
2018-01-31T05:09:39.712Z,88.21
2018-01-31T05:10:39.755Z,88.27
2018-01-31T05:11:39.454Z,87.79
2018-01-31T05:12:39.577Z,87.57
2018-01-31T05:13:39.560Z,87.8
2018-01-31T05:14:39.518Z,87.81
2018-01-31T05:15:39.672Z,87.78
2018-01-31T05:16:39.488Z,87.71
2018-01-31T05:17:39.754Z,87.63
2018-01-31T05:18:39.706Z,87.69
2018-01-31T05:19:39.707Z,87.62
2018-01-31T05:20:39.972Z,87.46
2018-01-31T05:21:39.571Z,87.65
2018-01-31T05:22:39.565Z,87.55
2018-01-31T05:23:40.258Z,87.35
2018-01-31T05:24:39.791Z,87.39
2018-01-31T05:25:39.607Z,87.27
2018-01-31T05:26:39.445Z,87.22
2018-01-31T05:27:39.681Z,86.75
2018-01-31T05:28:39.718Z,86.92
2018-01-31T05:29:39.713Z,86.83
2018-01-31T05:30:39.639Z,86.91
2018-01-31T05:31:39.683Z,87.08
2018-01-31T05:32:39.663Z,87.05
2018-01-31T05:33:39.814Z,87.04
2018-01-31T05:34:39.602Z,87.05
2018-01-31T05:35:39.738Z,87.02
2018-01-31T05:36:39.740Z,86.87
2018-01-31T05:37:39.771Z,86.85
2018-01-31T05:38:39.746Z,86.87
2018-01-31T05:39:39.847Z,86.7
2018-01-31T05:40:39.621Z,86.79
2018-01-31T05:41:39.679Z,86.17
2018-01-31T05:42:39.510Z,86.25
2018-01-31T05:43:39.801Z,85.94
2018-01-31T05:44:39.741Z,85.96
2018-01-31T05:45:39.646Z,85.98
2018-01-31T05:46:39.626Z,85.97
2018-01-31T05:47:39.498Z,85.6
2018-01-31T05:48:39.709Z,85.75
2018-01-31T05:49:39.514Z,85.65
2018-01-31T05:50:39.818Z,85.56
2018-01-31T05:51:39.526Z,85.41
2018-01-31T05:52:39.634Z,85.43
2018-01-31T05:53:39.723Z,85.52
2018-01-31T05:54:39.824Z,85.57
2018-01-31T05:55:39.716Z,85.48
2018-01-31T05:56:39.677Z,85.43
2018-01-31T05:57:39.556Z,85.73
2018-01-31T05:58:39.580Z,85.63
2018-01-31T05:59:39.775Z,85.85
2018-01-31T06:00:39.748Z,85.78
2018-01-31T06:01:39.741Z,85.68
2018-01-31T06:02:39.836Z,85.65
2018-01-31T06:03:39.662Z,85.71
2018-01-31T06:04:39.785Z,85.54
2018-01-31T06:05:39.698Z,85.34
2018-01-31T06:06:39.768Z,85.47
2018-01-31T06:07:39.797Z,85.43
2018-01-31T06:08:39.584Z,85.4
2018-01-31T06:09:39.900Z,85.32
2018-01-31T06:10:39.714Z,85.39
2018-01-31T06:11:39.768Z,85.21
2018-01-31T06:12:39.729Z,85.17
2018-01-31T06:13:39.804Z,84.72
2018-01-31T06:14:39.781Z,84.74
2018-01-31T06:15:39.653Z,84.74
2018-01-31T06:16:39.756Z,84.96
2018-01-31T06:17:39.798Z,85.03
2018-01-31T06:18:39.828Z,84.8
2018-01-31T06:19:39.585Z,84.9
2018-01-31T06:20:39.889Z,84.99
2018-01-31T06:21:39.702Z,85.13
2018-01-31T06:22:39.569Z,85.41
2018-01-31T06:23:39.647Z,85.14
2018-01-31T06:24:39.766Z,85.2
2018-01-31T06:25:39.791Z,85.24
2018-01-31T06:26:39.756Z,85.19
2018-01-31T06:27:39.617Z,85.41
2018-01-31T06:28:39.647Z,85.45
2018-01-31T06:29:39.880Z,85.5
2018-01-31T06:30:39.720Z,85.41
2018-01-31T06:31:39.594Z,85.49
2018-01-31T06:32:39.576Z,85.49
2018-01-31T06:33:39.700Z,85.4
2018-01-31T06:34:39.833Z,85.18
2018-01-31T06:35:39.761Z,85.23
2018-01-31T06:36:39.710Z,85.37
2018-01-31T06:37:39.765Z,85.31
2018-01-31T06:38:39.759Z,85.2
2018-01-31T06:39:39.915Z,84.85
2018-01-31T06:40:39.836Z,84.87
2018-01-31T06:41:40.441Z,85.2
2018-01-31T06:42:39.775Z,85.13
2018-01-31T06:43:39.793Z,85.42
2018-01-31T06:44:40.177Z,85.45
2018-01-31T06:45:39.870Z,85.31
2018-01-31T06:46:39.896Z,85.09
2018-01-31T06:47:39.730Z,85.4
2018-01-31T06:48:39.726Z,85.27
2018-01-31T06:49:39.860Z,85.27
2018-01-31T06:50:39.682Z,85.25
2018-01-31T06:51:39.704Z,85.27
2018-01-31T06:52:39.813Z,85.14
2018-01-31T06:53:39.650Z,84.99
2018-01-31T06:54:39.897Z,84.98
2018-01-31T06:55:39.703Z,85.06
2018-01-31T06:56:39.888Z,85
2018-01-31T06:57:39.628Z,84.96
2018-01-31T06:58:39.706Z,85.07
2018-01-31T06:59:39.861Z,85.15
2018-01-31T07:00:39.787Z,85.22
2018-01-31T07:01:39.658Z,85.05
2018-01-31T07:02:39.905Z,84.97
2018-01-31T07:03:39.732Z,84.93
2018-01-31T07:04:39.615Z,84.9
2018-01-31T07:05:40.049Z,85.05
2018-01-31T07:06:39.985Z,84.88
2018-01-31T07:07:40.522Z,84.99
2018-01-31T07:08:40.373Z,84.99
2018-01-31T07:09:40.388Z,85.1
2018-01-31T07:10:39.803Z,84.98
2018-01-31T07:11:39.772Z,84.63
2018-01-31T07:12:39.812Z,84.8
2018-01-31T07:13:40.150Z,84.55
2018-01-31T07:14:40.068Z,84.27
2018-01-31T07:15:39.880Z,84.51
2018-01-31T07:16:39.918Z,84.11
2018-01-31T07:17:39.882Z,84.28
2018-01-31T07:18:39.912Z,84.38
2018-01-31T07:19:40.034Z,84.24
2018-01-31T07:20:39.729Z,84.45
2018-01-31T07:21:39.864Z,84.32
2018-01-31T07:22:39.824Z,84.37
2018-01-31T07:23:39.679Z,84.52
2018-01-31T07:24:40.212Z,84.64
2018-01-31T07:25:39.746Z,84.45
2018-01-31T07:26:39.880Z,84.32
2018-01-31T07:27:40.351Z,84.34
2018-01-31T07:28:40.005Z,83.98
2018-01-31T07:29:40.451Z,84.36
2018-01-31T07:30:40.587Z,84.47
2018-01-31T07:31:39.633Z,83.96
2018-01-31T07:32:39.895Z,84.28
2018-01-31T07:33:39.834Z,84.35
2018-01-31T07:34:39.943Z,84.37
2018-01-31T07:35:39.906Z,84.35
2018-01-31T07:36:39.856Z,84.45
2018-01-31T07:37:39.813Z,84.69
2018-01-31T07:38:40.623Z,84.59
2018-01-31T07:39:39.749Z,84.22
2018-01-31T07:40:39.824Z,84.48
2018-01-31T07:41:39.887Z,84.44
2018-01-31T07:42:39.849Z,84.49
2018-01-31T07:43:40.074Z,84.4
2018-01-31T07:44:40.012Z,84.5
2018-01-31T07:45:39.839Z,84.42
2018-01-31T07:46:39.881Z,84.46
2018-01-31T07:47:40.005Z,84.37
2018-01-31T07:48:40.633Z,84.12
2018-01-31T07:49:39.905Z,84.19
2018-01-31T07:50:39.862Z,84.3
2018-01-31T07:51:39.859Z,84.16
2018-01-31T07:52:39.886Z,84.05
2018-01-31T07:53:39.845Z,84.12
2018-01-31T07:54:39.916Z,84.13
2018-01-31T07:55:39.872Z,84.28
2018-01-31T07:56:39.962Z,84.21
2018-01-31T07:57:39.810Z,84.17
2018-01-31T07:58:39.994Z,84.51
2018-01-31T07:59:40.014Z,84.35
2018-01-31T08:00:40.009Z,84.29
2018-01-31T08:01:40.911Z,84.36
2018-01-31T08:02:40.113Z,84.19
2018-01-31T08:03:40.011Z,84.25
2018-01-31T08:04:39.961Z,84.23
2018-01-31T08:05:39.952Z,84.29
2018-01-31T08:06:39.911Z,84.28
2018-01-31T08:07:39.782Z,84.19
2018-01-31T08:08:39.963Z,84.23
2018-01-31T08:09:39.733Z,83.63
2018-01-31T08:10:39.921Z,83.88
2018-01-31T08:11:39.984Z,83.87
2018-01-31T08:12:39.830Z,83.68
2018-01-31T08:13:40.117Z,83.76
2018-01-31T08:14:39.848Z,83.63
2018-01-31T08:15:38.908Z,83.73
2018-01-31T08:16:38.983Z,83.96
2018-01-31T08:17:39.072Z,83.69
2018-01-31T08:18:39.044Z,83.53
2018-01-31T08:19:39.171Z,83.77
2018-01-31T08:20:39.008Z,83.55
2018-01-31T08:21:38.897Z,83.58
2018-01-31T08:22:39.056Z,83.33
2018-01-31T08:23:39.018Z,83.43
2018-01-31T08:24:39.120Z,83.57
2018-01-31T08:25:38.932Z,83.47
2018-01-31T08:26:38.931Z,83.5
2018-01-31T08:27:39.764Z,83.77
2018-01-31T08:28:38.939Z,83.43
2018-01-31T08:29:39.029Z,83.18
2018-01-31T08:30:38.891Z,83.04
2018-01-31T08:31:39.058Z,83.47
2018-01-31T08:32:38.893Z,83.44
2018-01-31T08:33:39.068Z,83.45
2018-01-31T08:34:39.316Z,83.07
2018-01-31T08:35:38.965Z,83.32
2018-01-31T08:36:39.030Z,83.24
2018-01-31T08:37:38.914Z,83.06
2018-01-31T08:38:38.828Z,83.2
2018-01-31T08:39:39.303Z,82.98
2018-01-31T08:40:39.139Z,83.06
2018-01-31T08:41:39.026Z,82.62
2018-01-31T08:42:39.215Z,82.53
2018-01-31T08:43:39.114Z,82.8
2018-01-31T08:44:39.066Z,82.83
2018-01-31T08:45:39.419Z,82.91
2018-01-31T08:46:39.154Z,82.99
2018-01-31T08:47:39.301Z,83.15
2018-01-31T08:48:39.275Z,83.21
2018-01-31T08:49:39.256Z,83.18
2018-01-31T08:50:39.243Z,83.25
2018-01-31T08:51:39.327Z,83.01
2018-01-31T08:52:39.278Z,82.97
2018-01-31T08:53:39.445Z,83.09
2018-01-31T08:54:39.373Z,83.14
2018-01-31T08:55:39.320Z,82.79
2018-01-31T08:56:39.338Z,82.72
2018-01-31T08:57:39.730Z,82.96
2018-01-31T08:58:39.259Z,82.93
2018-01-31T08:59:39.272Z,82.82
2018-01-31T09:00:39.397Z,82.62
2018-01-31T09:01:39.300Z,82.75
2018-01-31T09:02:39.444Z,82.66
2018-01-31T09:03:39.380Z,82.32
2018-01-31T09:04:39.141Z,82.33
2018-01-31T09:05:39.184Z,82.53
2018-01-31T09:06:39.306Z,82.6
2018-01-31T09:07:39.450Z,82.47
2018-01-31T09:08:39.290Z,82.58
2018-01-31T09:09:39.109Z,82.18
2018-01-31T09:10:39.380Z,82.07
2018-01-31T09:11:39.186Z,82
2018-01-31T09:12:40.096Z,82.06
2018-01-31T09:13:39.328Z,81.79
2018-01-31T09:14:39.334Z,81.52
2018-01-31T09:15:39.441Z,81.6
2018-01-31T09:16:39.432Z,81.5
2018-01-31T09:17:39.391Z,81.61
2018-01-31T09:18:39.272Z,80.98
2018-01-31T09:19:39.392Z,80.78
2018-01-31T09:20:39.184Z,80.89
2018-01-31T09:21:39.713Z,80.88
2018-01-31T09:22:39.205Z,80.42
2018-01-31T09:23:39.317Z,80.53
2018-01-31T09:24:39.381Z,80.38
2018-01-31T09:25:39.409Z,80.69
2018-01-31T09:26:39.336Z,81.05
2018-01-31T09:27:39.480Z,80.5
2018-01-31T09:28:39.327Z,80.67
2018-01-31T09:29:39.336Z,80.16
2018-01-31T09:30:39.355Z,80.21
2018-01-31T09:31:39.427Z,80.23
2018-01-31T09:32:39.355Z,80.53
2018-01-31T09:33:39.275Z,79.96
2018-01-31T09:34:39.433Z,79.61
2018-01-31T09:35:39.376Z,80.21
2018-01-31T09:36:39.240Z,80.37
2018-01-31T09:37:39.504Z,80.22
2018-01-31T09:38:39.485Z,80.14
2018-01-31T09:39:39.273Z,79.92
2018-01-31T09:40:39.352Z,79.82
2018-01-31T09:41:39.452Z,80.1
2018-01-31T09:42:39.220Z,80.25
2018-01-31T09:43:39.328Z,79.7
2018-01-31T09:44:39.314Z,79.82
2018-01-31T09:45:39.664Z,79.57
2018-01-31T09:46:39.505Z,80.17
2018-01-31T09:47:39.371Z,79.99
2018-01-31T09:48:39.500Z,80.13
2018-01-31T09:49:39.382Z,80.54
2018-01-31T09:50:39.507Z,80.47
2018-01-31T09:51:39.191Z,80.07
2018-01-31T09:52:39.361Z,80.33
2018-01-31T09:53:39.272Z,80.04
2018-01-31T09:54:39.221Z,80.44
2018-01-31T09:55:39.692Z,80.6
2018-01-31T09:56:39.739Z,80.94
2018-01-31T09:57:39.506Z,80.66
2018-01-31T09:58:39.346Z,81.31
2018-01-31T09:59:40.224Z,81.32
2018-01-31T10:00:39.351Z,81.48
2018-01-31T10:01:39.758Z,81.72
2018-01-31T10:02:39.381Z,81.08
2018-01-31T10:03:39.327Z,81.45
2018-01-31T10:04:39.344Z,80.98
2018-01-31T10:05:39.248Z,80.69
2018-01-31T10:06:40.770Z,81.18
2018-01-31T10:07:39.265Z,81.47
2018-01-31T10:08:39.326Z,81.65
2018-01-31T10:09:39.377Z,81.29
2018-01-31T10:10:39.250Z,81.55
2018-01-31T10:11:39.432Z,81.55
2018-01-31T10:12:39.480Z,81.76
2018-01-31T10:13:39.446Z,81.74
2018-01-31T10:14:39.544Z,81.5
2018-01-31T10:15:39.504Z,81.57
2018-01-31T10:16:39.326Z,81.28
2018-01-31T10:17:39.239Z,81.52
2018-01-31T10:18:39.282Z,81.84
2018-01-31T10:19:39.704Z,81.9
2018-01-31T10:20:39.319Z,82.03
2018-01-31T10:21:39.428Z,81.87
2018-01-31T10:22:39.595Z,81.87
2018-01-31T10:23:39.624Z,81.77
2018-01-31T10:24:40.129Z,82.06
2018-01-31T10:25:39.367Z,81.89
2018-01-31T10:26:39.551Z,81.58
2018-01-31T10:27:39.616Z,81.9
2018-01-31T10:28:39.513Z,81.23
2018-01-31T10:29:39.818Z,81.62
2018-01-31T10:30:39.437Z,81.51
2018-01-31T10:31:39.468Z,81.03
2018-01-31T10:32:39.312Z,81.27
2018-01-31T10:33:39.378Z,81.38
2018-01-31T10:34:39.280Z,81.5
2018-01-31T10:35:39.363Z,80.97
2018-01-31T10:36:39.363Z,81.26
2018-01-31T10:37:39.637Z,80.85
2018-01-31T10:38:39.377Z,81.32
2018-01-31T10:39:39.591Z,81.54
2018-01-31T10:40:39.457Z,81.4
2018-01-31T10:41:39.519Z,81.31
2018-01-31T10:42:39.765Z,81.12
2018-01-31T10:43:39.772Z,80.91
2018-01-31T10:44:39.554Z,81.31
2018-01-31T10:45:39.596Z,80.78
2018-01-31T10:46:39.465Z,80.96
2018-01-31T10:47:39.482Z,81.03
2018-01-31T10:48:39.524Z,81.21
2018-01-31T10:49:39.608Z,81.36
2018-01-31T10:50:39.559Z,81.68
2018-01-31T10:51:39.409Z,82.01
2018-01-31T10:52:39.403Z,82.46
2018-01-31T10:57:39.576Z,83.82
2018-01-31T10:58:39.645Z,84.07
2018-01-31T10:59:39.827Z,84.17
2018-01-31T11:00:39.488Z,84.39
2018-01-31T11:01:39.512Z,83.9
2018-01-31T11:02:39.633Z,83.87
2018-01-31T11:03:39.636Z,84.1
2018-01-31T11:04:39.608Z,84.54
2018-01-31T11:05:39.608Z,84.98
2018-01-31T11:06:39.649Z,84.83
2018-01-31T11:07:39.671Z,84.7
2018-01-31T11:08:40.433Z,84.66
2018-01-31T11:09:39.680Z,83.81
2018-01-31T11:10:39.498Z,84.08
2018-01-31T11:11:39.751Z,83.76
2018-01-31T11:12:39.609Z,83.36
2018-01-31T11:13:39.676Z,84.22
2018-01-31T11:14:39.604Z,84.24
2018-01-31T11:15:39.959Z,83.77
2018-01-31T11:16:39.738Z,83.9
2018-01-31T11:17:39.983Z,83.64
2018-01-31T11:18:39.954Z,83.63
2018-01-31T11:19:39.815Z,83.94
2018-01-31T11:20:39.750Z,83.54
2018-01-31T11:21:39.712Z,83.54
2018-01-31T11:22:40.079Z,83.4
2018-01-31T11:23:39.734Z,82.98
2018-01-31T11:24:39.708Z,83.12
2018-01-31T11:25:39.706Z,83.2
2018-01-31T11:26:39.877Z,82.72
2018-01-31T11:27:40.002Z,82.65
2018-01-31T11:28:39.761Z,82.71
2018-01-31T11:29:40.138Z,82.97
2018-01-31T11:30:39.995Z,82.91
2018-01-31T11:31:39.871Z,83.21
2018-01-31T11:32:39.892Z,82.61
2018-01-31T11:33:39.889Z,82.1
2018-01-31T11:34:39.993Z,82.36
2018-01-31T11:35:39.834Z,81.86
2018-01-31T11:36:40.023Z,82.39
2018-01-31T11:37:39.721Z,82.51
2018-01-31T11:38:39.958Z,81.88
2018-01-31T11:39:39.842Z,81.79
2018-01-31T11:40:39.924Z,81.01
2018-01-31T11:41:39.892Z,81.3
2018-01-31T11:42:38.942Z,80.77
2018-01-31T11:43:39.943Z,80.31
2018-01-31T11:44:39.890Z,80.46
2018-01-31T11:45:39.925Z,80.48
2018-01-31T11:46:39.792Z,80.31
2018-01-31T11:47:40.011Z,80.54
2018-01-31T11:48:39.961Z,80.31
2018-01-31T11:49:39.850Z,79.91
2018-01-31T11:50:39.809Z,80.11
2018-01-31T11:51:39.920Z,79.96
2018-01-31T11:52:40.154Z,79.08
2018-01-31T11:53:39.908Z,78.69
2018-01-31T11:54:40.066Z,79.12
2018-01-31T11:55:39.902Z,79.26
2018-01-31T11:56:40.045Z,79.17
2018-01-31T11:57:40.152Z,78.96
2018-01-31T11:58:39.919Z,78.78
2018-01-31T11:59:41.726Z,78.8
2018-01-31T12:00:39.921Z,78.77
2018-01-31T12:01:39.723Z,77.66
2018-01-31T12:02:39.775Z,77.33
2018-01-31T12:03:39.821Z,77.2
2018-01-31T12:04:39.984Z,76.36
2018-01-31T12:05:39.786Z,76.7
2018-01-31T12:06:39.713Z,77.62
2018-01-31T12:07:39.787Z,77.1
2018-01-31T12:08:39.967Z,77.22
2018-01-31T12:09:39.953Z,76.68
2018-01-31T12:10:39.834Z,76.66
2018-01-31T12:11:39.836Z,76.45
2018-01-31T12:12:39.956Z,76.65
2018-01-31T12:13:39.927Z,76.46
2018-01-31T12:14:39.884Z,76.28
2018-01-31T12:15:40.163Z,76.71
2018-01-31T12:16:39.215Z,76.24
2018-01-31T12:17:39.104Z,76.91
2018-01-31T12:18:39.079Z,76.62
2018-01-31T12:19:39.128Z,76.71
2018-01-31T12:20:39.048Z,76.65
2018-01-31T12:21:38.973Z,76.91
2018-01-31T12:22:38.931Z,77.09
2018-01-31T12:23:39.113Z,76.81
2018-01-31T12:24:39.255Z,77.29
2018-01-31T12:25:39.115Z,76.98
2018-01-31T12:26:39.122Z,77.38
2018-01-31T12:27:39.123Z,77.37
2018-01-31T12:28:39.210Z,77.65
2018-01-31T12:29:39.054Z,77.02
2018-01-31T12:30:39.103Z,77.31
2018-01-31T12:31:39.114Z,77.25
2018-01-31T12:32:39.788Z,77.68
2018-01-31T12:33:38.930Z,77.59
2018-01-31T12:34:39.131Z,77.61
2018-01-31T12:35:39.103Z,77.56
2018-01-31T12:36:38.884Z,77.44
2018-01-31T12:37:39.061Z,77.8
2018-01-31T12:38:39.118Z,77.52
2018-01-31T12:39:39.331Z,77.13
2018-01-31T12:40:39.043Z,77.17
2018-01-31T12:41:39.068Z,76.93
2018-01-31T12:42:39.013Z,77.74
2018-01-31T12:43:39.134Z,77.96
2018-01-31T12:44:39.380Z,77.86
2018-01-31T12:45:38.885Z,78.08
2018-01-31T12:46:39.370Z,77.93
2018-01-31T12:47:39.276Z,77.67
2018-01-31T12:48:39.052Z,77.82
2018-01-31T12:49:38.992Z,77.52
2018-01-31T12:50:39.182Z,77.36
2018-01-31T12:51:39.177Z,77.33
2018-01-31T12:52:39.217Z,77.79
2018-01-31T12:53:39.351Z,78.1
2018-01-31T12:54:39.273Z,77.74
2018-01-31T12:55:39.161Z,77.95
2018-01-31T12:56:39.151Z,77.77
2018-01-31T12:57:39.261Z,77.27
2018-01-31T12:58:39.479Z,77.07
2018-01-31T12:59:39.216Z,77.11
2018-01-31T13:00:39.149Z,77.71
2018-01-31T13:01:39.258Z,77.22
2018-01-31T13:02:39.264Z,77.42
2018-01-31T13:03:39.353Z,77.26
2018-01-31T13:04:39.289Z,77.41
2018-01-31T13:05:39.388Z,77.21
2018-01-31T13:06:39.042Z,77.24
2018-01-31T13:07:39.026Z,77.09
2018-01-31T13:08:39.376Z,77.52
2018-01-31T13:09:39.145Z,77.83
2018-01-31T13:10:39.239Z,77.4
2018-01-31T13:11:39.091Z,77.16
2018-01-31T13:12:39.034Z,77.33
2018-01-31T13:13:39.075Z,77.56
2018-01-31T13:14:39.212Z,77.19
2018-01-31T13:15:39.076Z,77.33
2018-01-31T13:16:39.499Z,77.22
2018-01-31T13:17:39.593Z,77.38
2018-01-31T13:18:39.740Z,77.05
2018-01-31T13:19:39.947Z,76.9
2018-01-31T13:20:39.629Z,76.47
2018-01-31T13:21:39.592Z,76.73
2018-01-31T13:22:39.542Z,77.14
2018-01-31T13:23:39.490Z,76.51
2018-01-31T13:24:39.908Z,76.21
2018-01-31T13:25:40.736Z,76.33
2018-01-31T13:26:39.815Z,76.79
2018-01-31T13:27:39.710Z,76.74
2018-01-31T13:28:39.682Z,76.84
2018-01-31T13:29:39.530Z,76.44
2018-01-31T13:30:40.509Z,76.55
2018-01-31T13:31:39.621Z,77.28
2018-01-31T13:32:39.673Z,76.54
2018-01-31T13:33:39.749Z,76.63
2018-01-31T13:34:39.497Z,76.64
2018-01-31T13:35:39.568Z,76.17
2018-01-31T13:36:39.451Z,76.68
2018-01-31T13:37:39.655Z,76.42
2018-01-31T13:38:39.547Z,76.86
2018-01-31T13:39:39.408Z,76.92
2018-01-31T13:40:39.574Z,77.06
2018-01-31T13:41:39.611Z,76.74
2018-01-31T13:42:39.749Z,76.8
2018-01-31T13:43:39.779Z,76.18
2018-01-31T13:44:39.579Z,75.89
2018-01-31T13:45:39.559Z,76.62
2018-01-31T13:46:39.709Z,76.08
2018-01-31T13:47:39.743Z,76.19
2018-01-31T13:48:39.762Z,75.75
2018-01-31T13:49:39.748Z,75.81
2018-01-31T13:50:39.807Z,75.96
2018-01-31T13:51:39.668Z,75.76
2018-01-31T13:52:39.762Z,76.07
2018-01-31T13:53:39.681Z,75.78
2018-01-31T13:54:39.611Z,75.35
2018-01-31T13:55:39.982Z,75.98
2018-01-31T13:56:39.473Z,75.45
2018-01-31T13:57:39.845Z,75.31
2018-01-31T13:58:39.554Z,75.69
2018-01-31T13:59:39.734Z,76.09
2018-01-31T14:00:39.605Z,76.49
2018-01-31T14:01:39.632Z,76.35
2018-01-31T14:02:39.612Z,75.82
2018-01-31T14:03:39.658Z,75.95
2018-01-31T14:04:39.904Z,75.19
2018-01-31T14:05:39.675Z,75.46
2018-01-31T14:06:39.577Z,75.72
2018-01-31T14:07:39.608Z,75.88
2018-01-31T14:08:39.979Z,75.69
2018-01-31T14:09:39.447Z,76.02
2018-01-31T14:10:39.584Z,76.31
2018-01-31T14:11:39.715Z,76.2
2018-01-31T14:12:39.744Z,76.24
2018-01-31T14:13:39.522Z,75.98
2018-01-31T14:14:39.884Z,75.53
2018-01-31T14:15:39.785Z,75.59
2018-01-31T14:16:39.752Z,75.64
2018-01-31T14:17:39.745Z,75.85
2018-01-31T14:18:39.689Z,75.77
2018-01-31T14:19:39.827Z,75.8
2018-01-31T14:20:41.760Z,76.03
2018-01-31T14:21:41.328Z,75.56
2018-01-31T14:22:41.376Z,76.03
2018-01-31T14:23:42.097Z,76.08
2018-01-31T14:24:52.438Z,75.73
2018-01-31T14:25:42.772Z,75.63
2018-01-31T14:26:42.427Z,75.84
2018-01-31T14:27:39.598Z,76.08
2018-01-31T14:28:39.590Z,76.15
2018-01-31T14:29:39.764Z,76.46
2018-01-31T14:30:39.732Z,76.18
2018-01-31T14:31:39.900Z,76.45
2018-01-31T14:32:39.758Z,76.36
2018-01-31T14:33:39.719Z,76.19
2018-01-31T14:34:39.772Z,76.43
2018-01-31T14:35:39.842Z,76.82
2018-01-31T14:36:40.314Z,77
2018-01-31T14:37:42.999Z,76.7
2018-01-31T14:38:39.778Z,76.61
2018-01-31T14:39:39.837Z,76.52
2018-01-31T14:40:39.787Z,76.58
2018-01-31T14:41:39.826Z,76.76
2018-01-31T14:42:39.663Z,76.4
2018-01-31T14:43:39.586Z,76.62
2018-01-31T14:44:39.648Z,76.57
2018-01-31T14:45:39.694Z,76.88
2018-01-31T14:46:40.960Z,77.01
2018-01-31T14:47:40.224Z,76.49
2018-01-31T14:48:39.812Z,76.66
2018-01-31T14:49:40.567Z,76.66
2018-01-31T14:50:39.975Z,76.53
2018-01-31T14:51:40.014Z,76.54